createdAt,value
2018-07-30T00:05:37.496Z,10.63
2018-07-30T00:08:33.501Z,11.33
2018-07-30T00:11:02.234Z,11.03
2018-07-30T00:13:30.684Z,11.43
2018-07-30T00:19:04.221Z,11.07
2018-07-30T00:21:32.698Z,10.73
2018-07-30T00:24:01.086Z,10.47
2018-07-30T00:26:29.605Z,10.47
2018-07-30T00:28:58.001Z,10.13
2018-07-30T00:31:26.473Z,10.83
2018-07-30T00:33:54.881Z,10.57
2018-07-30T00:36:23.329Z,10.93
2018-07-30T00:38:51.951Z,10.63
2018-07-30T00:41:20.402Z,10.40
2018-07-30T00:43:48.785Z,10.93
2018-07-30T00:46:17.224Z,11.03
2018-07-30T00:48:46.419Z,10.73
2018-07-30T00:51:15.261Z,11.20
2018-07-30T00:53:45.748Z,10.97
2018-07-30T00:56:14.164Z,10.67
2018-07-30T00:58:45.492Z,11.17
2018-07-30T01:01:14.432Z,10.50
2018-07-30T01:03:44.988Z,9.93
2018-07-30T01:06:13.385Z,10.20
2018-07-30T01:08:43.556Z,10.30
2018-07-30T01:11:12.347Z,10.77
2018-07-30T01:13:40.781Z,10.97
2018-07-30T01:16:09.220Z,12.33
2018-07-30T01:18:37.912Z,11.57
2018-07-30T01:21:07.648Z,10.70
2018-07-30T01:23:36.597Z,11.37
2018-07-30T01:26:10.669Z,11.03
2018-07-30T01:28:39.072Z,11.77
2018-07-30T01:31:07.801Z,10.80
2018-07-30T01:33:36.771Z,10.57
2018-07-30T01:36:05.364Z,11.37
2018-07-30T01:38:34.338Z,10.70
2018-07-30T01:41:02.763Z,10.77
2018-07-30T01:43:32.580Z,10.70
2018-07-30T01:46:01.126Z,11.37
2018-07-30T01:48:29.713Z,11.43
2018-07-30T01:50:58.275Z,10.97
2018-07-30T01:53:27.085Z,10.73
2018-07-30T01:55:55.589Z,10.80
2018-07-30T01:58:24.064Z,10.43
2018-07-30T02:00:52.716Z,10.77
2018-07-30T02:03:21.324Z,11.10
2018-07-30T02:05:50.046Z,11.33
2018-07-30T02:08:18.861Z,11.30
2018-07-30T02:10:47.496Z,10.63
2018-07-30T02:13:15.875Z,10.90
2018-07-30T02:15:44.337Z,11.73
2018-07-30T02:18:12.897Z,10.83
2018-07-30T02:20:41.317Z,11.03
2018-07-30T02:23:10.081Z,10.63
2018-07-30T02:25:38.456Z,11.00
2018-07-30T02:28:06.921Z,11.90
2018-07-30T02:30:35.749Z,11.13
2018-07-30T02:33:04.311Z,11.87
2018-07-30T02:35:33.961Z,10.83
2018-07-30T02:38:02.676Z,10.73
2018-07-30T02:40:31.118Z,11.20
2018-07-30T02:42:59.887Z,11.20
2018-07-30T02:45:28.574Z,10.80
2018-07-30T02:47:57.740Z,11.13
2018-07-30T02:50:26.427Z,11.10
2018-07-30T02:52:54.805Z,11.03
2018-07-30T02:55:23.696Z,11.33
2018-07-30T02:57:52.508Z,11.60
2018-07-30T03:00:21.729Z,11.97
2018-07-30T03:02:50.129Z,11.40
2018-07-30T03:05:19.247Z,10.80
2018-07-30T03:07:47.733Z,10.87
2018-07-30T03:10:16.581Z,12.13
2018-07-30T03:12:45.192Z,11.43
2018-07-30T03:15:14.071Z,10.23
2018-07-30T03:17:42.981Z,11.13
2018-07-30T03:20:11.769Z,11.07
2018-07-30T03:22:40.204Z,11.20
2018-07-30T03:25:08.733Z,11.10
2018-07-30T03:27:37.193Z,11.97
2018-07-30T03:30:07.300Z,11.93
2018-07-30T03:32:36.029Z,10.90
2018-07-30T03:35:05.280Z,11.20
2018-07-30T03:37:33.960Z,11.57
2018-07-30T03:40:02.710Z,12.13
2018-07-30T03:42:31.375Z,11.70
2018-07-30T03:45:00.061Z,12.40
2018-07-30T03:47:28.512Z,12.27
2018-07-30T03:49:57.200Z,11.57
2018-07-30T03:52:25.616Z,12.00
2018-07-30T03:54:54.028Z,12.40
2018-07-30T03:57:22.758Z,12.77
2018-07-30T03:59:52.289Z,11.40
2018-07-30T04:02:21.213Z,12.73
2018-07-30T04:04:50.205Z,12.43
2018-07-30T04:07:18.664Z,12.20
2018-07-30T04:09:47.014Z,11.70
2018-07-30T04:12:15.432Z,12.10
2018-07-30T04:14:43.865Z,11.47
2018-07-30T04:17:12.337Z,12.13
2018-07-30T04:19:40.834Z,11.87
2018-07-30T04:22:09.489Z,11.93
2018-07-30T04:24:37.911Z,13.17
2018-07-30T04:27:06.762Z,12.43
2018-07-30T04:29:35.145Z,12.53
2018-07-30T04:32:03.556Z,11.53
2018-07-30T04:34:31.987Z,11.90
2018-07-30T04:37:00.395Z,11.80
2018-07-30T04:39:28.853Z,12.10
2018-07-30T04:41:57.555Z,11.97
2018-07-30T04:44:26.309Z,12.73
2018-07-30T04:46:54.679Z,12.27
2018-07-30T04:49:23.571Z,12.57
2018-07-30T04:51:51.953Z,12.20
2018-07-30T04:54:20.389Z,11.73
2018-07-30T04:56:49.243Z,11.13
2018-07-30T04:59:17.680Z,11.67
2018-07-30T05:01:46.225Z,10.63
2018-07-30T05:04:14.666Z,11.77
2018-07-30T05:06:43.324Z,11.83
2018-07-30T05:09:11.778Z,11.17
2018-07-30T05:11:40.211Z,11.47
2018-07-30T05:14:09.597Z,11.17
2018-07-30T05:16:38.224Z,10.60
2018-07-30T05:19:06.660Z,10.93
2018-07-30T05:21:35.049Z,11.40
2018-07-30T05:24:03.724Z,10.30
2018-07-30T05:26:32.116Z,10.80
2018-07-30T05:29:00.588Z,11.37
2018-07-30T05:31:28.997Z,11.87
2018-07-30T05:33:57.705Z,10.97
2018-07-30T05:36:26.349Z,11.23
2018-07-30T05:38:54.793Z,11.43
2018-07-30T05:41:23.211Z,12.43
2018-07-30T05:43:52.091Z,11.63
2018-07-30T05:46:20.974Z,11.97
2018-07-30T05:48:49.363Z,12.77
2018-07-30T05:51:17.787Z,13.73
2018-07-30T05:53:46.736Z,13.50
2018-07-30T05:56:15.627Z,14.40
2018-07-30T05:58:46.017Z,14.80
2018-07-30T06:04:18.732Z,14.47
2018-07-30T06:06:47.411Z,15.43
2018-07-30T06:10:15.157Z,14.97
2018-07-30T06:12:43.500Z,14.73
2018-07-30T06:19:08.693Z,15.33
2018-07-30T06:21:37.190Z,14.93
2018-07-30T06:24:05.717Z,15.13
2018-07-30T06:26:34.600Z,15.00
2018-07-30T06:29:03.009Z,15.67
2018-07-30T06:31:31.381Z,16.40
2018-07-30T06:33:59.766Z,15.47
2018-07-30T06:36:28.186Z,15.57
2018-07-30T06:38:56.901Z,14.77
2018-07-30T06:41:25.296Z,15.07
2018-07-30T06:43:54.257Z,14.73
2018-07-30T06:46:22.693Z,15.53
2018-07-30T06:48:51.874Z,15.83
2018-07-30T06:51:20.401Z,16.97
2018-07-30T06:53:48.805Z,17.73
2018-07-30T06:56:17.244Z,16.40
2018-07-30T06:58:47.825Z,17.50
2018-07-30T07:01:16.470Z,15.47
2018-07-30T07:03:47.304Z,17.30
2018-07-30T07:06:15.724Z,15.37
2018-07-30T07:08:46.266Z,16.47
2018-07-30T07:11:21.434Z,17.00
2018-07-30T07:13:49.840Z,16.43
2018-07-30T07:16:18.224Z,16.03
2018-07-30T07:18:47.602Z,16.07
2018-07-30T07:21:16.089Z,17.17
2018-07-30T07:23:46.676Z,16.07
2018-07-30T07:26:15.104Z,15.10
2018-07-30T07:28:45.677Z,16.30
2018-07-30T07:31:14.071Z,16.93
2018-07-30T07:33:42.764Z,15.40
2018-07-30T07:36:11.230Z,17.00
2018-07-30T07:38:39.977Z,16.20
2018-07-30T07:41:09.217Z,14.83
2018-07-30T07:43:37.715Z,14.43
2018-07-30T07:46:06.881Z,14.17
2018-07-30T07:48:35.439Z,13.77
2018-07-30T07:51:04.364Z,13.57
2018-07-30T07:53:32.869Z,13.90
2018-07-30T07:56:01.434Z,14.23
2018-07-30T07:58:30.061Z,15.93
2018-07-30T08:00:58.498Z,13.93
2018-07-30T08:03:26.996Z,14.17
2018-07-30T08:05:55.448Z,13.13
2018-07-30T08:08:23.873Z,13.27
2018-07-30T08:10:52.418Z,13.23
2018-07-30T08:13:21.167Z,12.90
2018-07-30T08:15:49.585Z,12.90
2018-07-30T08:18:18.103Z,14.27
2018-07-30T08:20:46.514Z,14.10
2018-07-30T08:23:15.308Z,13.50
2018-07-30T08:25:44.113Z,13.37
2018-07-30T08:28:12.860Z,15.00
2018-07-30T08:30:41.241Z,14.00
2018-07-30T08:33:09.768Z,14.47
2018-07-30T08:35:38.175Z,13.67
2018-07-30T08:38:06.633Z,15.00
2018-07-30T08:40:35.308Z,13.33
2018-07-30T08:43:04.504Z,12.30
2018-07-30T08:45:33.452Z,12.30
2018-07-30T08:48:01.917Z,11.60
2018-07-30T08:50:30.496Z,13.10
2018-07-30T08:52:58.909Z,14.03
2018-07-30T08:55:27.364Z,12.85
2018-07-30T08:57:56.036Z,12.53
2018-07-30T09:00:24.485Z,11.97
2018-07-30T09:02:52.856Z,11.22
2018-07-30T09:05:21.321Z,12.88
2018-07-30T09:07:49.893Z,12.10
2018-07-30T09:10:18.644Z,11.73
2018-07-30T09:12:47.686Z,12.18
2018-07-30T09:15:23.536Z,11.25
2018-07-30T09:17:51.977Z,12.82
2018-07-30T09:20:20.681Z,12.10
2018-07-30T09:22:49.457Z,12.40
2018-07-30T09:25:17.905Z,11.60
2018-07-30T09:27:46.300Z,12.45
2018-07-30T09:30:14.968Z,12.78
2018-07-30T09:32:43.431Z,12.88
2018-07-30T09:35:12.237Z,12.23
2018-07-30T09:37:41.344Z,12.45
2018-07-30T09:40:09.764Z,10.48
2018-07-30T09:42:38.661Z,11.28
2018-07-30T09:45:07.174Z,10.05
2018-07-30T09:47:35.986Z,10.50
2018-07-30T09:50:04.726Z,9.80
2018-07-30T09:52:33.468Z,9.93
2018-07-30T09:55:01.958Z,9.58
2018-07-30T09:57:30.308Z,10.20
2018-07-30T09:59:59.073Z,10.03
2018-07-30T10:02:27.521Z,9.70
2018-07-30T10:04:55.976Z,8.73
2018-07-30T10:07:24.496Z,9.45
2018-07-30T10:09:53.343Z,8.40
2018-07-30T10:12:21.736Z,7.17
2018-07-30T10:15:32.600Z,7.10
2018-07-30T10:18:01.359Z,7.20
2018-07-30T10:20:30.207Z,7.58
2018-07-30T10:22:58.563Z,7.47
2018-07-30T10:25:27.048Z,6.85
2018-07-30T10:27:55.468Z,6.90
2018-07-30T10:30:24.034Z,6.90
2018-07-30T10:32:52.464Z,6.87
2018-07-30T10:35:20.956Z,7.45
2018-07-30T10:37:49.757Z,7.35
2018-07-30T10:40:18.582Z,6.60
2018-07-30T10:42:47.073Z,6.90
2018-07-30T10:45:15.851Z,7.00
2018-07-30T10:47:44.274Z,6.55
2018-07-30T10:50:12.696Z,6.72
2018-07-30T10:52:41.109Z,6.35
2018-07-30T10:55:09.523Z,7.50
2018-07-30T10:57:38.052Z,6.20
2018-07-30T11:00:06.616Z,6.35
2018-07-30T11:02:35.151Z,5.80
2018-07-30T11:05:03.723Z,5.45
2018-07-30T11:07:32.213Z,5.45
2018-07-30T11:10:00.597Z,5.10
2018-07-30T11:12:29.032Z,5.40
2018-07-30T11:15:44.517Z,5.12
2018-07-30T11:18:13.092Z,4.90
2018-07-30T11:20:42.087Z,5.78
2018-07-30T11:23:10.834Z,5.67
2018-07-30T11:25:39.238Z,5.70
2018-07-30T11:28:08.297Z,6.10
2018-07-30T11:30:37.005Z,5.60
2018-07-30T11:33:05.720Z,5.85
2018-07-30T11:35:34.618Z,5.55
2018-07-30T11:38:03.023Z,6.10
2018-07-30T11:40:31.446Z,5.75
2018-07-30T11:42:59.935Z,5.80
2018-07-30T11:45:28.625Z,6.00
2018-07-30T11:47:57.455Z,5.62
2018-07-30T11:50:26.173Z,5.37
2018-07-30T11:52:54.926Z,5.35
2018-07-30T11:55:23.465Z,5.50
2018-07-30T11:57:51.812Z,5.45
2018-07-30T12:00:20.527Z,5.53
2018-07-30T12:02:48.958Z,5.22
2018-07-30T12:05:17.308Z,5.00
2018-07-30T12:07:45.740Z,5.40
2018-07-30T12:11:03.798Z,5.78
2018-07-30T12:13:33.496Z,5.35
2018-07-30T12:19:46.457Z,5.40
2018-07-30T12:26:20.436Z,5.42
2018-07-30T12:28:51.440Z,5.58
2018-07-30T12:31:20.274Z,5.45
2018-07-30T12:33:48.861Z,4.90
2018-07-30T12:36:17.451Z,4.85
2018-07-30T12:38:47.518Z,4.78
2018-07-30T12:41:15.996Z,5.17
2018-07-30T12:43:46.368Z,4.45
2018-07-30T12:46:14.767Z,4.55
2018-07-30T12:48:43.545Z,4.92
2018-07-30T12:51:12.109Z,4.92
2018-07-30T12:53:40.928Z,4.70
2018-07-30T12:56:09.628Z,4.37
2018-07-30T12:58:38.120Z,4.47
2018-07-30T13:01:06.557Z,4.55
2018-07-30T13:03:35.017Z,4.55
2018-07-30T13:06:03.445Z,4.53
2018-07-30T13:08:32.012Z,4.60
2018-07-30T13:11:00.842Z,4.72
2018-07-30T13:13:29.485Z,4.45
2018-07-30T13:16:16.196Z,4.47
2018-07-30T13:18:46.165Z,4.83
2018-07-30T13:21:14.830Z,4.60
2018-07-30T13:23:43.279Z,4.25
2018-07-30T13:26:11.692Z,4.70
2018-07-30T13:28:40.265Z,4.50
2018-07-30T13:31:08.669Z,5.17
2018-07-30T13:33:37.137Z,4.25
2018-07-30T13:36:05.575Z,4.20
2018-07-30T13:38:34.053Z,4.30
2018-07-30T13:41:02.464Z,4.08
2018-07-30T13:43:31.238Z,4.30
2018-07-30T13:45:59.656Z,3.98
2018-07-30T13:48:28.177Z,3.87
2018-07-30T13:50:56.665Z,4.00
2018-07-30T13:53:25.055Z,3.75
2018-07-30T13:55:53.513Z,3.55
2018-07-30T13:58:21.964Z,4.00
2018-07-30T14:00:50.422Z,4.03
2018-07-30T14:03:18.837Z,3.62
2018-07-30T14:05:47.208Z,4.15
2018-07-30T14:08:15.641Z,3.72
2018-07-30T14:10:44.061Z,3.67
2018-07-30T14:13:12.510Z,4.22
2018-07-30T14:16:23.187Z,4.00
2018-07-30T14:18:51.669Z,4.50
2018-07-30T14:21:20.183Z,4.33
2018-07-30T14:23:50.001Z,3.85
2018-07-30T14:26:18.432Z,4.55
2018-07-30T14:28:48.045Z,4.30
2018-07-30T14:31:16.517Z,4.70
2018-07-30T14:33:46.264Z,4.70
2018-07-30T14:36:14.790Z,5.20
2018-07-30T14:38:43.198Z,5.08
2018-07-30T14:41:11.618Z,5.17
2018-07-30T14:43:40.029Z,14.83
2018-07-30T14:46:08.538Z,16.12
2018-07-30T14:48:36.924Z,11.00
2018-07-30T14:51:05.346Z,7.70
2018-07-30T14:53:34.085Z,6.30
2018-07-30T14:56:02.890Z,5.20
2018-07-30T14:58:31.333Z,5.40
2018-07-30T15:00:59.754Z,5.70
2018-07-30T15:03:28.264Z,5.53
2018-07-30T15:05:56.705Z,5.75
2018-07-30T15:08:25.136Z,5.40
2018-07-30T15:10:53.952Z,5.40
2018-07-30T15:13:22.660Z,5.10
2018-07-30T15:16:35.851Z,5.28
2018-07-30T15:19:04.687Z,5.22
2018-07-30T15:21:33.451Z,5.20
2018-07-30T15:24:02.009Z,5.58
2018-07-30T15:26:30.732Z,5.33
2018-07-30T15:28:59.623Z,5.05
2018-07-30T15:31:28.056Z,5.05
2018-07-30T15:33:56.929Z,5.20
2018-07-30T15:36:25.790Z,5.10
2018-07-30T15:38:54.366Z,5.80
2018-07-30T15:41:23.441Z,5.87
2018-07-30T15:43:51.996Z,5.12
2018-07-30T15:46:20.425Z,5.20
2018-07-30T15:48:49.945Z,5.42
2018-07-30T15:51:18.385Z,5.03
2018-07-30T15:53:47.997Z,6.05
2018-07-30T15:56:17.210Z,5.45
2018-07-30T15:58:46.780Z,5.67
2018-07-30T16:01:15.196Z,5.62
2018-07-30T16:03:43.951Z,5.62
2018-07-30T16:06:12.493Z,5.53
2018-07-30T16:08:41.371Z,5.37
2018-07-30T16:11:17.461Z,5.47
2018-07-30T16:13:45.793Z,5.53
2018-07-30T16:16:43.728Z,5.20
2018-07-30T16:19:12.118Z,5.70
2018-07-30T16:21:40.816Z,5.62
2018-07-30T16:24:09.269Z,5.40
2018-07-30T16:26:37.923Z,5.35
2018-07-30T16:29:06.524Z,5.53
2018-07-30T16:31:35.290Z,5.62
2018-07-30T16:34:03.745Z,5.90
2018-07-30T16:36:32.081Z,5.40
2018-07-30T16:39:00.869Z,5.78
2018-07-30T16:41:29.835Z,6.37
2018-07-30T16:43:58.292Z,5.50
2018-07-30T16:46:26.776Z,6.00
2018-07-30T16:48:55.184Z,5.35
2018-07-30T16:51:23.815Z,5.50
2018-07-30T16:53:52.811Z,5.90
2018-07-30T16:56:21.420Z,6.03
2018-07-30T16:58:49.830Z,4.75
2018-07-30T17:01:18.774Z,5.15
2018-07-30T17:03:48.245Z,5.28
2018-07-30T17:06:17.097Z,5.20
2018-07-30T17:08:45.665Z,5.45
2018-07-30T17:11:17.179Z,5.75
2018-07-30T17:13:47.339Z,6.25
2018-07-30T17:16:54.159Z,5.60
2018-07-30T17:19:22.632Z,5.80
2018-07-30T17:21:51.308Z,5.40
2018-07-30T17:24:19.735Z,5.22
2018-07-30T17:26:48.148Z,5.40
2018-07-30T17:29:16.573Z,5.42
2018-07-30T17:31:45.056Z,5.33
2018-07-30T17:34:13.809Z,5.67
2018-07-30T17:36:42.545Z,5.40
2018-07-30T17:39:11.749Z,5.58
2018-07-30T17:41:40.560Z,5.10
2018-07-30T17:44:09.511Z,6.00
2018-07-30T17:46:37.934Z,7.33
2018-07-30T17:49:06.373Z,6.08
2018-07-30T17:51:34.917Z,6.17
2018-07-30T17:54:03.691Z,6.08
2018-07-30T17:56:32.157Z,6.10
2018-07-30T17:59:00.700Z,5.97
2018-07-30T18:01:29.164Z,6.45
2018-07-30T18:03:58.046Z,6.10
2018-07-30T18:06:26.511Z,7.92
2018-07-30T18:08:55.177Z,7.60
2018-07-30T18:11:24.889Z,7.40
2018-07-30T18:13:53.257Z,8.88
2018-07-30T18:19:25.957Z,9.43
2018-07-30T18:21:54.485Z,10.15
2018-07-30T18:24:22.899Z,8.65
2018-07-30T18:26:51.412Z,8.58
2018-07-30T18:29:19.917Z,9.85
2018-07-30T18:31:48.497Z,7.60
2018-07-30T18:34:17.005Z,9.88
2018-07-30T18:36:45.392Z,7.33
2018-07-30T18:39:13.892Z,8.88
2018-07-30T18:41:42.781Z,8.03
2018-07-30T18:44:20.568Z,9.65
2018-07-30T18:46:50.445Z,7.83
2018-07-30T18:49:19.250Z,6.55
2018-07-30T18:51:47.998Z,7.40
2018-07-30T18:54:16.972Z,7.35
2018-07-30T18:56:45.762Z,6.75
2018-07-30T18:59:14.329Z,7.72
2018-07-30T19:01:43.344Z,7.20
2018-07-30T19:04:12.184Z,6.90
2018-07-30T19:06:41.137Z,7.20
2018-07-30T19:09:10.619Z,6.72
2018-07-30T19:11:39.592Z,6.72
2018-07-30T19:14:08.897Z,6.87
2018-07-30T19:17:17.513Z,6.63
2018-07-30T19:19:46.641Z,6.42
2018-07-30T19:22:15.837Z,6.60
2018-07-30T19:24:45.009Z,6.67
2018-07-30T19:27:14.109Z,6.92
2018-07-30T19:29:43.113Z,7.53
2018-07-30T19:32:12.185Z,8.28
2018-07-30T19:34:41.020Z,7.50
2018-07-30T19:37:10.003Z,7.40
2018-07-30T19:39:38.750Z,8.55
2018-07-30T19:42:07.393Z,6.23
2018-07-30T19:44:36.023Z,7.20
2018-07-30T19:47:04.824Z,6.97
2018-07-30T19:49:33.912Z,7.50
2018-07-30T19:52:03.037Z,6.95
2018-07-30T19:54:32.036Z,6.53
2018-07-30T19:57:01.191Z,7.65
2018-07-30T19:59:30.372Z,7.12
2018-07-30T20:01:59.733Z,6.65
2018-07-30T20:04:29.448Z,7.13
2018-07-30T20:06:58.618Z,7.37
2018-07-30T20:09:27.745Z,7.22
2018-07-30T20:11:56.757Z,7.27
2018-07-30T20:15:11.962Z,7.83
2018-07-30T20:17:41.709Z,6.60
2018-07-30T20:20:14.576Z,7.70
2018-07-30T20:22:43.817Z,7.00
2018-07-30T20:25:14.911Z,7.43
2018-07-30T20:28:29.356Z,6.83
2018-07-30T20:30:58.501Z,7.73
2018-07-30T20:33:27.680Z,6.70
2018-07-30T20:35:56.351Z,6.60
2018-07-30T20:38:24.944Z,6.43
2018-07-30T20:40:53.442Z,6.47
2018-07-30T20:43:21.928Z,7.13
2018-07-30T20:45:50.454Z,7.70
2018-07-30T20:48:19.137Z,6.50
2018-07-30T20:50:47.645Z,6.77
2018-07-30T20:53:20.042Z,7.00
2018-07-30T20:55:53.644Z,7.70
2018-07-30T20:58:26.639Z,6.30
2018-07-30T21:00:59.447Z,5.93
2018-07-30T21:03:33.231Z,6.77
2018-07-30T21:06:06.223Z,6.57
2018-07-30T21:08:34.876Z,6.97
2018-07-30T21:11:03.365Z,8.07
2018-07-30T21:13:32.021Z,6.87
2018-07-30T21:19:21.815Z,6.40
2018-07-30T21:21:50.232Z,6.90
2018-07-30T21:24:19.064Z,9.43
2018-07-30T21:26:47.452Z,6.50
2018-07-30T21:29:15.873Z,6.53
2018-07-30T21:31:44.375Z,6.30
2018-07-30T21:34:12.819Z,6.63
2018-07-30T21:36:41.321Z,6.50
2018-07-30T21:39:12.037Z,6.67
2018-07-30T21:41:41.228Z,6.43
2018-07-30T21:44:10.806Z,6.47
2018-07-30T21:46:40.904Z,6.60
2018-07-30T21:49:09.816Z,7.37
2018-07-30T21:51:38.654Z,7.27
2018-07-30T21:54:07.077Z,6.57
2018-07-30T21:56:35.535Z,6.77
2018-07-30T21:59:03.957Z,7.00
2018-07-30T22:01:32.617Z,6.67
2018-07-30T22:04:01.379Z,7.03
2018-07-30T22:06:30.141Z,6.97
2018-07-30T22:08:59.270Z,7.13
2018-07-30T22:11:27.958Z,6.70
2018-07-30T22:13:56.392Z,7.40
2018-07-30T22:16:24.796Z,9.87
2018-07-30T22:18:53.573Z,7.10
2018-07-30T22:21:21.961Z,6.53
2018-07-30T22:23:51.973Z,7.33
2018-07-30T22:26:20.373Z,7.23
2018-07-30T22:28:50.352Z,7.50
2018-07-30T22:31:18.895Z,7.33
2018-07-30T22:33:47.302Z,7.37
2018-07-30T22:36:15.763Z,7.27
2018-07-30T22:38:44.156Z,6.90
2018-07-30T22:41:12.800Z,6.70
2018-07-30T22:43:41.521Z,7.77
2018-07-30T22:46:10.138Z,7.80
2018-07-30T22:48:38.569Z,7.57
2018-07-30T22:51:07.071Z,7.17
2018-07-30T22:53:35.557Z,7.37
2018-07-30T22:56:03.969Z,9.27
2018-07-30T22:58:32.375Z,7.30
2018-07-30T23:01:00.769Z,7.63
2018-07-30T23:03:29.193Z,7.67
2018-07-30T23:05:57.588Z,8.10
2018-07-30T23:08:25.987Z,7.57
2018-07-30T23:10:54.412Z,7.17
2018-07-30T23:13:22.816Z,7.00
2018-07-30T23:15:51.195Z,7.30
2018-07-30T23:18:19.946Z,6.83
2018-07-30T23:20:48.334Z,6.83
2018-07-30T23:23:16.683Z,7.20
2018-07-30T23:25:45.432Z,7.53
2018-07-30T23:28:13.972Z,6.70
2018-07-30T23:30:42.381Z,7.03
2018-07-30T23:33:10.861Z,7.27
2018-07-30T23:35:39.300Z,7.43
2018-07-30T23:38:07.667Z,7.17
2018-07-30T23:40:36.060Z,6.80
2018-07-30T23:43:04.514Z,6.93
2018-07-30T23:45:33.195Z,6.20
2018-07-30T23:48:03.747Z,6.73
2018-07-30T23:50:32.164Z,6.77
2018-07-30T23:53:00.721Z,6.90
2018-07-30T23:55:29.108Z,6.57
2018-07-30T23:57:57.836Z,6.90
